Bergen Op Zoom, Netherlands
Current Conditions -  °F | °C
As of 1:25 PM on Thursday 30 Oct 2014 (Local Time) from EHWO Reporting Station
Clear Clear  
Wind Chill: 63°   Ceiling: Unl
Heat Index: 63°   Visibility: 6mi
Dew Point: 55°   Wind: 7mph
Humidity: 77%   Direction: 180°S
Pressure: 30.15"   Gusts: NA
Location:  51.51°N, 4.3°E
Report Text: EHWO 301225Z AUTO 18006KT 9999 BKN096 OVC100 17/13 Q1021 BLU 18005KT 8000 NSC
Loading
Personal Weather Stations






























Interactive Weather Map
Tropical Storm Tracking
New forecast layout! Learn more

10-Day Weather Forecast

Advertisements
Track Severe Weather on mobile